sensor_id;sensor_type;location;lat;lon;timestamp;pressure;altitude;pressure_sealevel;temperature;humidity
78198;BME280;67472;51.554;7.812;2023-06-04T00:02:13;101237.88;;;9.11;100.00
78198;BME280;67472;51.554;7.812;2023-06-04T00:05:00;101236.06;;;8.98;100.00
78198;BME280;67472;51.554;7.812;2023-06-04T00:07:46;101243.03;;;8.99;100.00
78198;BME280;67472;51.554;7.812;2023-06-04T00:10:32;101242.00;;;8.75;100.00
78198;BME280;67472;51.554;7.812;2023-06-04T00:13:19;101245.63;;;8.60;100.00
78198;BME280;67472;51.554;7.812;2023-06-04T00:16:05;101237.50;;;8.50;100.00
78198;BME280;67472;51.554;7.812;2023-06-04T00:18:53;101237.53;;;8.63;100.00
78198;BME280;67472;51.554;7.812;2023-06-04T00:21:39;101241.19;;;8.87;100.00
78198;BME280;67472;51.554;7.812;2023-06-04T00:24:26;101231.63;;;8.99;100.00
78198;BME280;67472;51.554;7.812;2023-06-04T00:27:12;101231.31;;;9.03;100.00
78198;BME280;67472;51.554;7.812;2023-06-04T00:29:59;101230.53;;;8.89;100.00
78198;BME280;67472;51.554;7.812;2023-06-04T00:32:45;101236.88;;;8.86;100.00
78198;BME280;67472;51.554;7.812;2023-06-04T00:35:33;101244.44;;;8.78;100.00
78198;BME280;67472;51.554;7.812;2023-06-04T00:38:19;101237.25;;;8.68;100.00
78198;BME280;67472;51.554;7.812;2023-06-04T00:41:05;101233.16;;;8.76;100.00
78198;BME280;67472;51.554;7.812;2023-06-04T00:43:52;101231.28;;;8.78;100.00
78198;BME280;67472;51.554;7.812;2023-06-04T00:46:41;101232.72;;;8.70;100.00
78198;BME280;67472;51.554;7.812;2023-06-04T00:49:30;101234.03;;;8.50;100.00
78198;BME280;67472;51.554;7.812;2023-06-04T00:52:17;101239.69;;;8.44;100.00
78198;BME280;67472;51.554;7.812;2023-06-04T00:55:04;101236.06;;;8.32;100.00
78198;BME280;67472;51.554;7.812;2023-06-04T00:57:51;101242.63;;;8.25;100.00
78198;BME280;67472;51.554;7.812;2023-06-04T01:00:37;101242.72;;;8.38;100.00
78198;BME280;67472;51.554;7.812;2023-06-04T01:03:26;101241.53;;;8.56;100.00
78198;BME280;67472;51.554;7.812;2023-06-04T01:06:22;101238.41;;;8.64;100.00
78198;BME280;67472;51.554;7.812;2023-06-04T01:09:13;101243.25;;;8.70;100.00
78198;BME280;67472;51.554;7.812;2023-06-04T01:12:03;101237.75;;;8.60;100.00
78198;BME280;67472;51.554;7.812;2023-06-04T01:14:50;101228.66;;;8.51;100.00
78198;BME280;67472;51.554;7.812;2023-06-04T01:17:39;101242.19;;;8.33;100.00
78198;BME280;67472;51.554;7.812;2023-06-04T01:20:31;101244.56;;;8.09;100.00
78198;BME280;67472;51.554;7.812;2023-06-04T01:23:26;101250.56;;;8.11;100.00
78198;BME280;67472;51.554;7.812;2023-06-04T01:26:19;101256.75;;;8.10;100.00
78198;BME280;67472;51.554;7.812;2023-06-04T01:29:07;101254.13;;;8.10;100.00
78198;BME280;67472;51.554;7.812;2023-06-04T01:31:54;101256.69;;;7.97;100.00
78198;BME280;67472;51.554;7.812;2023-06-04T01:34:45;101258.47;;;7.97;100.00
78198;BME280;67472;51.554;7.812;2023-06-04T01:37:31;101262.34;;;7.91;100.00
78198;BME280;67472;51.554;7.812;2023-06-04T01:40:19;101261.22;;;7.81;100.00
78198;BME280;67472;51.554;7.812;2023-06-04T01:43:07;101271.19;;;7.76;100.00
78198;BME280;67472;51.554;7.812;2023-06-04T01:45:53;101268.06;;;7.70;100.00
78198;BME280;67472;51.554;7.812;2023-06-04T01:48:41;101265.34;;;7.71;100.00
78198;BME280;67472;51.554;7.812;2023-06-04T01:51:27;101269.47;;;7.47;100.00
78198;BME280;67472;51.554;7.812;2023-06-04T01:54:13;101274.16;;;7.42;100.00
78198;BME280;67472;51.554;7.812;2023-06-04T01:57:01;101278.66;;;7.40;100.00
78198;BME280;67472;51.554;7.812;2023-06-04T01:59:50;101267.75;;;7.32;100.00
78198;BME280;67472;51.554;7.812;2023-06-04T02:02:36;101277.34;;;7.33;100.00
78198;BME280;67472;51.554;7.812;2023-06-04T02:05:23;101276.00;;;7.26;100.00
78198;BME280;67472;51.554;7.812;2023-06-04T02:08:10;101271.22;;;7.18;100.00
78198;BME280;67472;51.554;7.812;2023-06-04T02:10:57;101278.63;;;7.26;100.00
78198;BME280;67472;51.554;7.812;2023-06-04T02:13:43;101276.38;;;7.20;100.00
78198;BME280;67472;51.554;7.812;2023-06-04T02:16:30;101278.72;;;7.24;100.00
78198;BME280;67472;51.554;7.812;2023-06-04T02:19:17;101282.19;;;7.11;100.00
78198;BME280;67472;51.554;7.812;2023-06-04T02:22:05;101281.94;;;7.00;100.00
78198;BME280;67472;51.554;7.812;2023-06-04T02:24:52;101290.94;;;6.96;100.00
78198;BME280;67472;51.554;7.812;2023-06-04T02:27:38;101295.03;;;6.86;100.00
78198;BME280;67472;51.554;7.812;2023-06-04T02:30:25;101292.75;;;6.79;100.00
78198;BME280;67472;51.554;7.812;2023-06-04T02:33:13;101300.28;;;6.86;100.00
78198;BME280;67472;51.554;7.812;2023-06-04T02:35:59;101297.53;;;6.73;100.00
78198;BME280;67472;51.554;7.812;2023-06-04T02:38:45;101298.97;;;6.63;100.00
78198;BME280;67472;51.554;7.812;2023-06-04T02:41:32;101304.38;;;6.60;100.00
78198;BME280;67472;51.554;7.812;2023-06-04T02:44:18;101303.13;;;6.51;100.00
78198;BME280;67472;51.554;7.812;2023-06-04T02:47:06;101304.47;;;6.43;100.00
78198;BME280;67472;51.554;7.812;2023-06-04T02:49:53;101307.28;;;6.40;100.00
78198;BME280;67472;51.554;7.812;2023-06-04T02:52:39;101304.41;;;6.44;100.00
78198;BME280;67472;51.554;7.812;2023-06-04T02:55:26;101302.69;;;6.59;100.00
78198;BME280;67472;51.554;7.812;2023-06-04T02:58:12;101307.00;;;6.60;100.00
78198;BME280;67472;51.554;7.812;2023-06-04T03:00:59;101306.59;;;6.67;100.00
78198;BME280;67472;51.554;7.812;2023-06-04T03:03:45;101308.28;;;6.68;100.00
78198;BME280;67472;51.554;7.812;2023-06-04T03:06:34;101304.78;;;6.68;100.00
78198;BME280;67472;51.554;7.812;2023-06-04T03:09:23;101305.81;;;6.65;100.00
78198;BME280;67472;51.554;7.812;2023-06-04T03:12:10;101308.63;;;6.62;100.00
78198;BME280;67472;51.554;7.812;2023-06-04T03:14:59;101316.06;;;6.70;100.00
78198;BME280;67472;51.554;7.812;2023-06-04T03:17:45;101316.75;;;6.58;100.00
78198;BME280;67472;51.554;7.812;2023-06-04T03:20:32;101324.22;;;6.50;100.00
78198;BME280;67472;51.554;7.812;2023-06-04T03:23:25;101320.31;;;6.41;100.00
78198;BME280;67472;51.554;7.812;2023-06-04T03:26:11;101317.34;;;6.32;100.00
78198;BME280;67472;51.554;7.812;2023-06-04T03:29:02;101318.78;;;6.37;100.00
78198;BME280;67472;51.554;7.812;2023-06-04T03:31:49;101318.34;;;6.45;100.00
78198;BME280;67472;51.554;7.812;2023-06-04T03:34:37;101322.09;;;6.41;100.00
78198;BME280;67472;51.554;7.812;2023-06-04T03:37:23;101327.59;;;6.36;100.00
78198;BME280;67472;51.554;7.812;2023-06-04T03:40:12;101328.78;;;6.46;100.00
78198;BME280;67472;51.554;7.812;2023-06-04T03:43:02;101335.47;;;6.52;100.00
78198;BME280;67472;51.554;7.812;2023-06-04T03:45:50;101337.81;;;6.56;100.00
78198;BME280;67472;51.554;7.812;2023-06-04T03:48:36;101340.44;;;6.72;100.00
78198;BME280;67472;51.554;7.812;2023-06-04T03:51:23;101341.97;;;6.76;100.00
78198;BME280;67472;51.554;7.812;2023-06-04T03:54:10;101337.03;;;6.86;100.00
78198;BME280;67472;51.554;7.812;2023-06-04T03:56:59;101339.69;;;7.15;100.00
78198;BME280;67472;51.554;7.812;2023-06-04T03:59:47;101345.03;;;8.30;100.00
78198;BME280;67472;51.554;7.812;2023-06-04T04:02:33;101313.28;;;9.51;100.00
78198;BME280;67472;51.554;7.812;2023-06-04T04:05:20;101285.25;;;10.60;100.00
78198;BME280;67472;51.554;7.812;2023-06-04T04:08:08;101249.59;;;11.35;100.00
78198;BME280;67472;51.554;7.812;2023-06-04T04:10:54;101207.13;;;12.15;100.00
78198;BME280;67472;51.554;7.812;2023-06-04T04:13:43;101185.50;;;12.73;100.00
78198;BME280;67472;51.554;7.812;2023-06-04T04:16:30;101170.00;;;13.10;100.00
78198;BME280;67472;51.554;7.812;2023-06-04T04:19:17;101150.88;;;13.77;100.00
78198;BME280;67472;51.554;7.812;2023-06-04T04:22:03;101136.50;;;14.08;100.00
78198;BME280;67472;51.554;7.812;2023-06-04T04:24:50;101142.53;;;14.20;100.00
78198;BME280;67472;51.554;7.812;2023-06-04T04:27:37;101134.28;;;13.84;100.00
78198;BME280;67472;51.554;7.812;2023-06-04T04:30:29;101167.81;;;12.42;100.00
78198;BME280;67472;51.554;7.812;2023-06-04T04:33:18;101197.16;;;11.41;100.00
78198;BME280;67472;51.554;7.812;2023-06-04T04:36:06;101214.25;;;11.25;100.00
78198;BME280;67472;51.554;7.812;2023-06-04T04:38:58;101214.00;;;11.28;100.00
78198;BME280;67472;51.554;7.812;2023-06-04T04:41:51;101211.34;;;10.83;100.00
78198;BME280;67472;51.554;7.812;2023-06-04T04:44:37;101223.22;;;10.77;100.00
78198;BME280;67472;51.554;7.812;2023-06-04T04:47:25;101223.94;;;10.68;100.00
78198;BME280;67472;51.554;7.812;2023-06-04T04:50:11;101225.56;;;10.58;100.00
78198;BME280;67472;51.554;7.812;2023-06-04T04:52:57;101228.66;;;10.52;100.00
78198;BME280;67472;51.554;7.812;2023-06-04T04:55:44;101227.28;;;10.59;100.00
78198;BME280;67472;51.554;7.812;2023-06-04T04:58:31;101238.28;;;10.53;100.00
78198;BME280;67472;51.554;7.812;2023-06-04T05:01:19;101235.97;;;10.48;100.00
78198;BME280;67472;51.554;7.812;2023-06-04T05:04:07;101239.69;;;10.46;100.00
78198;BME280;67472;51.554;7.812;2023-06-04T05:06:53;101245.75;;;10.59;100.00
78198;BME280;67472;51.554;7.812;2023-06-04T05:09:41;101249.00;;;10.62;100.00
78198;BME280;67472;51.554;7.812;2023-06-04T05:12:29;101239.41;;;10.61;100.00
78198;BME280;67472;51.554;7.812;2023-06-04T05:15:16;101240.47;;;10.59;100.00
78198;BME280;67472;51.554;7.812;2023-06-04T05:18:19;101247.00;;;10.77;100.00
78198;BME280;67472;51.554;7.812;2023-06-04T05:21:54;101237.75;;;11.06;100.00
78198;BME280;67472;51.554;7.812;2023-06-04T05:25:21;101210.19;;;11.55;100.00
78198;BME280;67472;51.554;7.812;2023-06-04T05:28:53;101186.59;;;11.96;100.00
78198;BME280;67472;51.554;7.812;2023-06-04T05:33:03;101198.88;;;12.40;100.00
78198;BME280;67472;51.554;7.812;2023-06-04T05:36:41;101172.44;;;12.29;100.00
78198;BME280;67472;51.554;7.812;2023-06-04T05:39:37;101172.31;;;12.19;100.00
78198;BME280;67472;51.554;7.812;2023-06-04T05:42:29;101170.16;;;12.24;100.00
78198;BME280;67472;51.554;7.812;2023-06-04T05:45:15;101185.06;;;12.25;100.00
78198;BME280;67472;51.554;7.812;2023-06-04T05:48:03;101195.38;;;12.39;100.00
78198;BME280;67472;51.554;7.812;2023-06-04T05:50:50;101211.16;;;12.73;100.00
78198;BME280;67472;51.554;7.812;2023-06-04T05:53:38;101209.13;;;13.18;100.00
78198;BME280;67472;51.554;7.812;2023-06-04T05:56:25;101201.44;;;12.83;100.00
78198;BME280;67472;51.554;7.812;2023-06-04T05:59:13;101197.13;;;12.82;100.00
78198;BME280;67472;51.554;7.812;2023-06-04T06:02:00;101199.28;;;12.88;100.00
78198;BME280;67472;51.554;7.812;2023-06-04T06:04:47;101179.53;;;12.81;100.00
78198;BME280;67472;51.554;7.812;2023-06-04T06:07:36;101166.44;;;13.00;100.00
78198;BME280;67472;51.554;7.812;2023-06-04T06:10:24;101190.09;;;13.33;100.00
78198;BME280;67472;51.554;7.812;2023-06-04T06:13:11;101200.34;;;13.47;100.00
78198;BME280;67472;51.554;7.812;2023-06-04T06:15:57;101172.63;;;13.61;100.00
78198;BME280;67472;51.554;7.812;2023-06-04T06:18:44;101163.28;;;13.67;100.00
78198;BME280;67472;51.554;7.812;2023-06-04T06:21:31;101172.63;;;13.71;100.00
78198;BME280;67472;51.554;7.812;2023-06-04T06:24:17;101177.72;;;13.83;100.00
78198;BME280;67472;51.554;7.812;2023-06-04T06:27:05;101186.13;;;13.88;100.00
78198;BME280;67472;51.554;7.812;2023-06-04T06:29:51;101181.75;;;13.78;100.00
78198;BME280;67472;51.554;7.812;2023-06-04T06:32:37;101198.38;;;13.80;100.00
78198;BME280;67472;51.554;7.812;2023-06-04T06:35:24;101197.16;;;13.93;100.00
78198;BME280;67472;51.554;7.812;2023-06-04T06:38:10;101169.94;;;14.01;95.46
78198;BME280;67472;51.554;7.812;2023-06-04T06:40:56;101180.13;;;14.05;94.99
78198;BME280;67472;51.554;7.812;2023-06-04T06:43:43;101178.63;;;14.22;92.91
78198;BME280;67472;51.554;7.812;2023-06-04T06:46:29;101173.38;;;14.41;90.40
78198;BME280;67472;51.554;7.812;2023-06-04T06:49:16;101186.19;;;14.27;88.25
78198;BME280;67472;51.554;7.812;2023-06-04T06:52:03;101197.56;;;14.57;88.01
78198;BME280;67472;51.554;7.812;2023-06-04T06:54:49;101200.50;;;14.54;85.70
78198;BME280;67472;51.554;7.812;2023-06-04T06:57:35;101213.69;;;14.56;85.83
78198;BME280;67472;51.554;7.812;2023-06-04T07:00:23;101219.13;;;14.83;85.69
78198;BME280;67472;51.554;7.812;2023-06-04T07:03:09;101214.19;;;14.98;84.65
78198;BME280;67472;51.554;7.812;2023-06-04T07:05:56;101222.50;;;14.85;84.36
78198;BME280;67472;51.554;7.812;2023-06-04T07:08:42;101211.25;;;15.20;82.91
78198;BME280;67472;51.554;7.812;2023-06-04T07:11:28;101226.38;;;15.19;85.17
78198;BME280;67472;51.554;7.812;2023-06-04T07:14:15;101223.53;;;15.50;85.05
78198;BME280;67472;51.554;7.812;2023-06-04T07:17:03;101220.91;;;15.67;84.82
78198;BME280;67472;51.554;7.812;2023-06-04T07:19:49;101221.41;;;15.90;84.50
78198;BME280;67472;51.554;7.812;2023-06-04T07:22:36;101182.78;;;15.94;77.42
78198;BME280;67472;51.554;7.812;2023-06-04T07:25:22;101194.41;;;16.20;77.09
78198;BME280;67472;51.554;7.812;2023-06-04T07:28:10;101190.81;;;16.12;77.44
78198;BME280;67472;51.554;7.812;2023-06-04T07:30:56;101203.00;;;16.59;77.41
78198;BME280;67472;51.554;7.812;2023-06-04T07:33:44;101189.38;;;16.80;74.68
78198;BME280;67472;51.554;7.812;2023-06-04T07:36:31;101192.94;;;17.14;73.39
78198;BME280;67472;51.554;7.812;2023-06-04T07:39:17;101195.44;;;17.41;73.43
78198;BME280;67472;51.554;7.812;2023-06-04T07:42:04;101187.16;;;17.27;70.95
78198;BME280;67472;51.554;7.812;2023-06-04T07:44:52;101185.47;;;17.18;70.77
78198;BME280;67472;51.554;7.812;2023-06-04T07:47:38;101203.28;;;17.35;73.58
78198;BME280;67472;51.554;7.812;2023-06-04T07:50:26;101185.88;;;17.31;70.87
78198;BME280;67472;51.554;7.812;2023-06-04T07:53:12;101204.03;;;17.27;72.80
78198;BME280;67472;51.554;7.812;2023-06-04T07:55:58;101191.09;;;17.66;71.51
78198;BME280;67472;51.554;7.812;2023-06-04T07:58:44;101205.88;;;17.78;73.18
78198;BME280;67472;51.554;7.812;2023-06-04T08:01:32;101177.03;;;17.98;67.55
78198;BME280;67472;51.554;7.812;2023-06-04T08:04:18;101176.78;;;17.75;67.90
78198;BME280;67472;51.554;7.812;2023-06-04T08:07:06;101211.47;;;18.09;71.27
78198;BME280;67472;51.554;7.812;2023-06-04T08:09:52;101225.91;;;18.16;72.44
78198;BME280;67472;51.554;7.812;2023-06-04T08:12:40;101205.19;;;18.34;71.33
78198;BME280;67472;51.554;7.812;2023-06-04T08:15:26;101202.41;;;18.52;69.99
78198;BME280;67472;51.554;7.812;2023-06-04T08:18:32;101190.56;;;18.54;68.29
78198;BME280;67472;51.554;7.812;2023-06-04T08:21:29;101193.41;;;18.69;68.50
78198;BME280;67472;51.554;7.812;2023-06-04T08:24:34;101181.53;;;18.72;66.69
78198;BME280;67472;51.554;7.812;2023-06-04T08:27:31;101178.19;;;18.86;65.56
78198;BME280;67472;51.554;7.812;2023-06-04T08:30:22;101188.06;;;18.77;67.07
78198;BME280;67472;51.554;7.812;2023-06-04T08:33:28;101187.03;;;18.70;65.68
78198;BME280;67472;51.554;7.812;2023-06-04T08:36:16;101216.81;;;19.24;68.80
78198;BME280;67472;51.554;7.812;2023-06-04T08:39:02;101199.59;;;19.18;66.42
78198;BME280;67472;51.554;7.812;2023-06-04T08:41:52;101186.81;;;19.52;65.74
78198;BME280;67472;51.554;7.812;2023-06-04T08:44:39;101187.72;;;19.76;65.72
78198;BME280;67472;51.554;7.812;2023-06-04T08:47:26;101189.59;;;20.06;65.13
78198;BME280;67472;51.554;7.812;2023-06-04T08:50:17;101176.06;;;19.99;63.15
78198;BME280;67472;51.554;7.812;2023-06-04T08:53:04;101189.63;;;19.98;63.85
78198;BME280;67472;51.554;7.812;2023-06-04T08:55:53;101162.88;;;19.90;61.50
78198;BME280;67472;51.554;7.812;2023-06-04T08:58:41;101180.72;;;19.66;62.11
78198;BME280;67472;51.554;7.812;2023-06-04T09:01:30;101185.66;;;19.86;62.77
78198;BME280;67472;51.554;7.812;2023-06-04T09:04:18;101177.66;;;20.08;62.14
78198;BME280;67472;51.554;7.812;2023-06-04T09:07:05;101165.00;;;19.63;60.34
78198;BME280;67472;51.554;7.812;2023-06-04T09:09:51;101194.59;;;19.78;63.25
78198;BME280;67472;51.554;7.812;2023-06-04T09:12:42;101177.66;;;19.78;61.12
78198;BME280;67472;51.554;7.812;2023-06-04T09:15:29;101165.84;;;19.95;60.31
78198;BME280;67472;51.554;7.812;2023-06-04T09:18:16;101174.25;;;20.22;61.15
78198;BME280;67472;51.554;7.812;2023-06-04T09:21:03;101154.78;;;20.28;58.74
78198;BME280;67472;51.554;7.812;2023-06-04T09:23:50;101154.13;;;20.26;58.55
78198;BME280;67472;51.554;7.812;2023-06-04T09:26:37;101144.31;;;20.11;57.17
78198;BME280;67472;51.554;7.812;2023-06-04T09:29:23;101153.34;;;20.10;58.21
78198;BME280;67472;51.554;7.812;2023-06-04T09:32:12;101140.94;;;20.09;56.45
78198;BME280;67472;51.554;7.812;2023-06-04T09:35:08;101165.75;;;20.64;58.89
78198;BME280;67472;51.554;7.812;2023-06-04T09:37:56;101181.47;;;21.13;59.99
78198;BME280;67472;51.554;7.812;2023-06-04T09:40:44;101141.47;;;21.32;56.51
78198;BME280;67472;51.554;7.812;2023-06-04T09:43:33;101113.53;;;20.67;53.71
78198;BME280;67472;51.554;7.812;2023-06-04T09:46:20;101149.41;;;21.26;56.65
78198;BME280;67472;51.554;7.812;2023-06-04T09:49:07;101152.22;;;21.47;56.47
78198;BME280;67472;51.554;7.812;2023-06-04T09:51:54;101132.69;;;21.01;54.07
78198;BME280;67472;51.554;7.812;2023-06-04T09:54:41;101133.50;;;21.02;54.05
78198;BME280;67472;51.554;7.812;2023-06-04T09:57:29;101148.66;;;21.17;54.71
78198;BME280;67472;51.554;7.812;2023-06-04T10:00:18;101149.41;;;21.26;54.43
78198;BME280;67472;51.554;7.812;2023-06-04T10:03:05;101152.09;;;21.55;54.43
78198;BME280;67472;51.554;7.812;2023-06-04T10:05:57;101144.66;;;21.72;53.61
78198;BME280;67472;51.554;7.812;2023-06-04T10:08:45;101136.97;;;21.69;53.22
78198;BME280;67472;51.554;7.812;2023-06-04T10:11:35;101110.31;;;21.53;50.50
78198;BME280;67472;51.554;7.812;2023-06-04T10:14:22;101107.63;;;21.38;50.18
78198;BME280;67472;51.554;7.812;2023-06-04T10:17:11;101136.13;;;21.68;52.55
78198;BME280;67472;51.554;7.812;2023-06-04T10:19:59;101085.38;;;21.80;47.91
78198;BME280;67472;51.554;7.812;2023-06-04T10:22:52;101104.41;;;21.78;49.64
78198;BME280;67472;51.554;7.812;2023-06-04T10:25:38;101095.50;;;21.92;49.27
78198;BME280;67472;51.554;7.812;2023-06-04T10:28:25;101118.91;;;22.13;50.58
78198;BME280;67472;51.554;7.812;2023-06-04T10:31:13;101110.81;;;22.13;49.73
78198;BME280;67472;51.554;7.812;2023-06-04T10:34:01;101093.38;;;21.88;48.47
78198;BME280;67472;51.554;7.812;2023-06-04T10:36:48;101133.25;;;22.41;51.82
78198;BME280;67472;51.554;7.812;2023-06-04T10:39:36;101114.19;;;22.85;49.77
78198;BME280;67472;51.554;7.812;2023-06-04T10:42:22;101110.41;;;22.59;49.25
78198;BME280;67472;51.554;7.812;2023-06-04T10:45:10;101122.81;;;22.74;50.34
78198;BME280;67472;51.554;7.812;2023-06-04T10:48:00;101068.25;;;22.66;46.30
78198;BME280;67472;51.554;7.812;2023-06-04T10:50:50;101128.69;;;22.84;50.32
78198;BME280;67472;51.554;7.812;2023-06-04T10:53:37;101101.16;;;22.19;48.62
78198;BME280;67472;51.554;7.812;2023-06-04T10:56:28;101115.25;;;22.21;49.40
78198;BME280;67472;51.554;7.812;2023-06-04T10:59:17;101101.84;;;22.70;48.05
78198;BME280;67472;51.554;7.812;2023-06-04T11:02:05;101110.00;;;23.04;48.52
78198;BME280;67472;51.554;7.812;2023-06-04T11:04:59;101084.63;;;22.92;46.48
78198;BME280;67472;51.554;7.812;2023-06-04T11:07:50;101100.72;;;22.85;48.12
78198;BME280;67472;51.554;7.812;2023-06-04T11:10:39;101099.91;;;23.19;48.27
78198;BME280;67472;51.554;7.812;2023-06-04T11:13:26;101088.66;;;23.09;47.04
78198;BME280;67472;51.554;7.812;2023-06-04T11:16:16;101044.63;;;22.40;44.18
78198;BME280;67472;51.554;7.812;2023-06-04T11:19:03;101082.63;;;22.30;47.92
78198;BME280;67472;51.554;7.812;2023-06-04T11:21:49;101112.22;;;22.73;49.52
78198;BME280;67472;51.554;7.812;2023-06-04T11:24:36;101071.13;;;22.64;46.27
78198;BME280;67472;51.554;7.812;2023-06-04T11:27:22;101051.84;;;22.88;44.78
78198;BME280;67472;51.554;7.812;2023-06-04T11:30:13;101096.97;;;23.14;48.10
78198;BME280;67472;51.554;7.812;2023-06-04T11:33:00;101096.19;;;23.20;48.55
78198;BME280;67472;51.554;7.812;2023-06-04T11:35:47;101083.16;;;22.89;46.50
78198;BME280;67472;51.554;7.812;2023-06-04T11:38:33;101107.56;;;23.50;48.47
78198;BME280;67472;51.554;7.812;2023-06-04T11:41:20;101069.06;;;23.28;45.49
78198;BME280;67472;51.554;7.812;2023-06-04T11:44:06;101076.84;;;23.10;46.78
78198;BME280;67472;51.554;7.812;2023-06-04T11:46:54;101071.25;;;23.46;45.70
78198;BME280;67472;51.554;7.812;2023-06-04T11:49:40;101050.44;;;23.33;44.26
78198;BME280;67472;51.554;7.812;2023-06-04T11:52:27;101029.16;;;23.45;43.41
78198;BME280;67472;51.554;7.812;2023-06-04T11:55:15;101045.31;;;23.45;44.04
78198;BME280;67472;51.554;7.812;2023-06-04T11:58:05;101046.38;;;23.16;44.26
78198;BME280;67472;51.554;7.812;2023-06-04T12:00:52;101070.63;;;23.44;45.17
78198;BME280;67472;51.554;7.812;2023-06-04T12:03:41;101046.91;;;23.33;44.43
78198;BME280;67472;51.554;7.812;2023-06-04T12:06:28;101040.59;;;23.53;44.19
78198;BME280;67472;51.554;7.812;2023-06-04T12:09:20;101064.31;;;23.71;45.91
78198;BME280;67472;51.554;7.812;2023-06-04T12:12:07;101017.22;;;23.87;42.72
78198;BME280;67472;51.554;7.812;2023-06-04T12:14:57;101010.09;;;23.53;42.27
78198;BME280;67472;51.554;7.812;2023-06-04T12:17:49;101027.69;;;23.49;42.89
78198;BME280;67472;51.554;7.812;2023-06-04T12:20:39;101058.13;;;23.97;45.37
78198;BME280;67472;51.554;7.812;2023-06-04T12:23:27;101020.44;;;23.49;42.19
78198;BME280;67472;51.554;7.812;2023-06-04T12:26:23;101024.22;;;23.75;43.21
78198;BME280;67472;51.554;7.812;2023-06-04T12:29:14;101033.47;;;24.13;43.31
78198;BME280;67472;51.554;7.812;2023-06-04T12:32:05;101008.28;;;23.86;41.31
78198;BME280;67472;51.554;7.812;2023-06-04T12:34:53;101042.00;;;24.23;43.41
78198;BME280;67472;51.554;7.812;2023-06-04T12:37:42;101000.22;;;24.12;40.66
78198;BME280;67472;51.554;7.812;2023-06-04T12:40:28;101043.81;;;23.96;44.02
78198;BME280;67472;51.554;7.812;2023-06-04T12:43:14;100995.53;;;23.54;41.04
78198;BME280;67472;51.554;7.812;2023-06-04T12:46:00;101035.84;;;23.69;44.02
78198;BME280;67472;51.554;7.812;2023-06-04T12:48:47;101027.88;;;24.34;42.75
78198;BME280;67472;51.554;7.812;2023-06-04T12:51:33;100985.25;;;23.97;39.85
78198;BME280;67472;51.554;7.812;2023-06-04T12:54:22;100979.19;;;23.62;39.78
78198;BME280;67472;51.554;7.812;2023-06-04T12:57:09;100996.44;;;23.81;40.14
78198;BME280;67472;51.554;7.812;2023-06-04T12:59:55;100979.22;;;23.95;39.42
78198;BME280;67472;51.554;7.812;2023-06-04T13:02:42;100992.50;;;23.77;40.24
78198;BME280;67472;51.554;7.812;2023-06-04T13:05:28;101030.50;;;23.95;42.49
78198;BME280;67472;51.554;7.812;2023-06-04T13:08:15;101019.25;;;23.65;41.88
78198;BME280;67472;51.554;7.812;2023-06-04T13:11:03;101031.75;;;23.92;42.85
78198;BME280;67472;51.554;7.812;2023-06-04T13:13:50;100977.16;;;23.97;39.37
78198;BME280;67472;51.554;7.812;2023-06-04T13:16:37;101015.34;;;24.00;42.12
78198;BME280;67472;51.554;7.812;2023-06-04T13:19:23;100997.06;;;23.76;41.04
78198;BME280;67472;51.554;7.812;2023-06-04T13:22:10;100994.38;;;23.76;41.43
78198;BME280;67472;51.554;7.812;2023-06-04T13:24:56;100987.94;;;23.84;40.55
78198;BME280;67472;51.554;7.812;2023-06-04T13:27:44;101039.47;;;24.08;44.42
78198;BME280;67472;51.554;7.812;2023-06-04T13:30:31;101026.16;;;24.07;43.07
78198;BME280;67472;51.554;7.812;2023-06-04T13:33:17;100992.72;;;23.88;40.35
78198;BME280;67472;51.554;7.812;2023-06-04T13:36:06;101029.47;;;23.89;43.07
78198;BME280;67472;51.554;7.812;2023-06-04T13:38:53;101021.84;;;24.12;42.73
78198;BME280;67472;51.554;7.812;2023-06-04T13:41:39;101004.81;;;24.25;40.81
78198;BME280;67472;51.554;7.812;2023-06-04T13:44:27;100976.94;;;23.92;39.46
78198;BME280;67472;51.554;7.812;2023-06-04T13:47:13;101007.25;;;23.87;41.52
78198;BME280;67472;51.554;7.812;2023-06-04T13:50:00;101002.94;;;24.06;41.39
78198;BME280;67472;51.554;7.812;2023-06-04T13:52:46;100993.38;;;23.97;40.18
78198;BME280;67472;51.554;7.812;2023-06-04T13:55:32;100969.50;;;24.13;38.87
78198;BME280;67472;51.554;7.812;2023-06-04T13:58:18;100990.22;;;23.87;40.46
78198;BME280;67472;51.554;7.812;2023-06-04T14:01:06;100971.31;;;23.80;37.87
78198;BME280;67472;51.554;7.812;2023-06-04T14:04:05;101004.75;;;23.92;40.94
78198;BME280;67472;51.554;7.812;2023-06-04T14:06:51;101013.63;;;23.60;41.67
78198;BME280;67472;51.554;7.812;2023-06-04T14:09:38;100995.78;;;23.66;40.38
78198;BME280;67472;51.554;7.812;2023-06-04T14:12:25;101043.47;;;24.26;43.30
78198;BME280;67472;51.554;7.812;2023-06-04T14:15:11;101011.22;;;24.50;40.73
78198;BME280;67472;51.554;7.812;2023-06-04T14:17:59;100992.75;;;24.08;39.53
78198;BME280;67472;51.554;7.812;2023-06-04T14:20:45;100989.56;;;23.72;39.79
78198;BME280;67472;51.554;7.812;2023-06-04T14:23:32;100950.56;;;23.81;37.79
78198;BME280;67472;51.554;7.812;2023-06-04T14:26:18;101014.19;;;24.29;42.06
78198;BME280;67472;51.554;7.812;2023-06-04T14:29:05;101020.81;;;24.46;42.29
78198;BME280;67472;51.554;7.812;2023-06-04T14:31:51;100997.50;;;24.78;41.21
78198;BME280;67472;51.554;7.812;2023-06-04T14:34:38;101013.75;;;24.45;42.11
78198;BME280;67472;51.554;7.812;2023-06-04T14:37:25;100981.34;;;24.06;40.09
78198;BME280;67472;51.554;7.812;2023-06-04T14:40:11;100985.47;;;24.41;40.70